Time;durP1;ratioP1;P1;durP2;ratioP2;P2;SDS_P1;SDS_P2;PMS_P1;PMS_P2;Temp;Humidity;BMP_temperature;BMP_pressure;BME280_temperature;BME280_humidity;BME280_pressure;Samples;Min_cycle;Max_cycle;Signal;HPM_P1;HPM_P2
2023/10/15 00:00:12;;;;;;;2.60;1.90;;;9.80;98.00;;;;;;5013395;28;20545;-69
2023/10/15 00:02:41;;;;;;;3.27;2.23;;;9.60;98.00;;;;;;5015208;28;20489;-69
2023/10/15 00:05:13;;;;;;;4.77;2.30;;;9.40;98.00;;;;;;5014669;28;20532;-69
2023/10/15 00:07:40;;;;;;;3.47;1.87;;;9.20;98.00;;;;;;5014879;28;20494;-69
2023/10/15 00:10:11;;;;;;;3.13;2.03;;;9.20;98.00;;;;;;5014865;28;20465;-69
2023/10/15 00:12:39;;;;;;;5.80;2.50;;;9.10;98.00;;;;;;5014944;28;20947;-69
2023/10/15 00:15:13;;;;;;;7.07;2.60;;;9.10;98.00;;;;;;5014545;28;20457;-69
2023/10/15 00:17:40;;;;;;;8.63;3.63;;;9.00;98.00;;;;;;5014549;28;20462;-69
2023/10/15 00:20:10;;;;;;;5.37;2.93;;;9.00;98.00;;;;;;5013549;28;20535;-69
2023/10/15 00:22:38;;;;;;;7.80;3.63;;;8.90;98.00;;;;;;5015123;28;20483;-69
2023/10/15 00:25:11;;;;;;;6.60;3.20;;;8.90;98.00;;;;;;5013697;28;20957;-69
2023/10/15 00:27:40;;;;;;;6.00;3.30;;;8.70;98.00;;;;;;5013549;28;20451;-69
2023/10/15 00:30:12;;;;;;;9.83;3.67;;;8.60;98.00;;;;;;5014254;28;20445;-69
2023/10/15 00:32:44;;;;;;;13.23;3.63;;;8.80;98.00;;;;;;5014273;28;20514;-70
2023/10/15 00:35:11;;;;;;;4.60;2.43;;;8.90;98.00;;;;;;5014209;28;20452;-69
2023/10/15 00:37:40;;;;;;;6.10;3.00;;;8.80;98.00;;;;;;5014125;28;20456;-69
2023/10/15 00:40:16;;;;;;;5.13;2.43;;;8.80;98.00;;;;;;5014178;28;20452;-69
2023/10/15 00:42:46;;;;;;;4.40;2.57;;;8.80;98.00;;;;;;5014609;28;20494;-69
2023/10/15 00:45:14;;;;;;;8.10;2.30;;;8.50;98.00;;;;;;5014059;28;20487;-69
2023/10/15 00:47:43;;;;;;;7.40;2.33;;;8.50;98.00;;;;;;5012931;28;20735;-69
2023/10/15 00:50:11;;;;;;;6.27;2.53;;;8.40;98.00;;;;;;5014395;28;20840;-69
2023/10/15 00:52:42;;;;;;;4.10;2.27;;;8.30;98.00;;;;;;5014131;28;20491;-69
2023/10/15 00:55:17;;;;;;;4.80;2.57;;;8.50;98.00;;;;;;5013956;28;20451;-69
2023/10/15 00:57:48;;;;;;;9.60;2.50;;;8.60;98.00;;;;;;5014067;28;20517;-69
2023/10/15 01:03:03;;;;;;;3.93;2.17;;;8.40;98.00;;;;;;5014008;28;20962;-69
2023/10/15 01:05:34;;;;;;;2.80;1.83;;;8.30;98.00;;;;;;5012403;28;20459;-69
2023/10/15 01:08:04;;;;;;;3.30;2.10;;;8.20;98.00;;;;;;5013681;28;20542;-69
2023/10/15 01:10:37;;;;;;;3.30;2.13;;;8.20;98.00;;;;;;5013263;28;20468;-69
2023/10/15 01:13:15;;;;;;;6.10;2.70;;;8.30;98.00;;;;;;5013628;28;20457;-69
2023/10/15 01:15:43;;;;;;;3.13;2.00;;;8.20;98.00;;;;;;5013535;28;20542;-69
2023/10/15 01:18:10;;;;;;;3.80;2.10;;;8.40;98.00;;;;;;5013501;28;20458;-69
2023/10/15 01:20:41;;;;;;;3.07;2.00;;;8.60;98.00;;;;;;5013483;28;20818;-69
2023/10/15 01:23:08;;;;;;;5.33;2.37;;;8.70;98.00;;;;;;5012433;28;20582;-69
2023/10/15 01:25:46;;;;;;;3.87;2.27;;;8.70;98.00;;;;;;5013686;28;20456;-69
2023/10/15 01:28:13;;;;;;;5.67;2.50;;;8.80;98.00;;;;;;5013181;28;20559;-69
2023/10/15 01:30:41;;;;;;;6.70;2.70;;;9.00;98.00;;;;;;5013276;28;20462;-69
2023/10/15 01:33:10;;;;;;;3.33;2.10;;;9.10;98.00;;;;;;4995887;28;20543;-69
2023/10/15 01:35:40;;;;;;;8.07;2.40;;;9.30;98.00;;;;;;5013154;28;20453;-69
2023/10/15 01:38:19;;;;;;;6.80;2.80;;;9.30;98.00;;;;;;5013187;28;20847;-69
2023/10/15 01:40:53;;;;;;;4.70;2.10;;;9.20;98.00;;;;;;5012121;28;20827;-69
2023/10/15 01:43:22;;;;;;;7.67;2.40;;;9.20;98.00;;;;;;5013001;28;21021;-69
2023/10/15 01:45:56;;;;;;;6.57;2.63;;;9.20;98.00;;;;;;5013398;28;20456;-69
2023/10/15 01:48:30;;;;;;;6.60;2.83;;;9.20;98.00;;;;;;5012876;28;20544;-69
2023/10/15 01:51:06;;;;;;;5.07;2.60;;;9.20;98.00;;;;;;5012895;28;20453;-69
2023/10/15 01:53:36;;;;;;;5.43;2.40;;;9.20;98.00;;;;;;5013126;28;20458;-69
2023/10/15 01:56:06;;;;;;;4.00;2.37;;;9.40;98.00;;;;;;5011590;28;20960;-69
2023/10/15 01:58:33;;;;;;;6.23;2.70;;;9.30;98.00;;;;;;5012871;28;20454;-69
2023/10/15 02:01:13;;;;;;;7.50;2.80;;;9.30;98.00;;;;;;5011340;28;20504;-69
2023/10/15 02:03:41;;;;;;;4.97;2.43;;;9.20;98.00;;;;;;5012722;28;20600;-69
2023/10/15 02:06:08;;;;;;;5.67;2.77;;;9.30;98.00;;;;;;5012559;28;20456;-69
2023/10/15 02:08:38;;;;;;;5.43;2.60;;;9.30;98.00;;;;;;5012925;28;20455;-69
2023/10/15 02:11:22;;;;;;;3.30;2.20;;;9.30;98.00;;;;;;5012816;28;20455;-69
2023/10/15 02:13:49;;;;;;;5.47;2.37;;;9.30;98.00;;;;;;5012516;28;20482;-69
2023/10/15 02:16:18;;;;;;;4.33;2.50;;;9.30;98.00;;;;;;5010886;28;20467;-69
2023/10/15 02:18:46;;;;;;;4.37;2.60;;;9.30;98.00;;;;;;5012611;28;20462;-69
2023/10/15 02:21:16;;;;;;;3.97;2.47;;;9.30;98.00;;;;;;5012293;28;20452;-69
2023/10/15 02:23:52;;;;;;;4.50;2.67;;;9.20;98.00;;;;;;5012082;28;20490;-69
2023/10/15 02:26:30;;;;;;;3.80;2.50;;;9.20;98.00;;;;;;5012374;28;20488;-69
2023/10/15 02:29:06;;;;;;;6.00;2.40;;;9.20;98.00;;;;;;5012228;28;20486;-69
2023/10/15 02:31:41;;;;;;;4.33;2.30;;;9.10;98.00;;;;;;5012379;28;20531;-69
2023/10/15 02:34:14;;;;;;;3.83;2.50;;;9.00;98.00;;;;;;5011214;28;20455;-69
2023/10/15 02:36:42;;;;;;;3.50;2.27;;;9.10;98.00;;;;;;5012001;28;20531;-69
2023/10/15 02:39:09;;;;;;;4.77;2.67;;;9.20;98.00;;;;;;5012164;28;20896;-69
2023/10/15 02:41:41;;;;;;;4.70;2.70;;;9.30;98.00;;;;;;5011737;28;20452;-69
2023/10/15 02:44:12;;;;;;;3.53;2.43;;;9.50;98.00;;;;;;5012103;28;20898;-69
2023/10/15 02:46:47;;;;;;;4.50;2.60;;;9.60;98.00;;;;;;5012135;28;20461;-69
2023/10/15 02:49:16;;;;;;;5.33;2.63;;;9.40;98.00;;;;;;5012012;28;20467;-69
2023/10/15 02:51:45;;;;;;;5.10;2.50;;;9.40;98.00;;;;;;5011918;28;20448;-69
2023/10/15 02:54:27;;;;;;;3.80;2.13;;;9.40;98.00;;;;;;5012008;28;20499;-69
2023/10/15 02:56:56;;;;;;;6.47;2.83;;;9.50;98.00;;;;;;5011931;28;20477;-69
2023/10/15 02:59:24;;;;;;;4.90;2.80;;;9.50;98.00;;;;;;5011778;28;20461;-69
2023/10/15 03:01:56;;;;;;;4.10;2.90;;;9.40;98.00;;;;;;5011864;28;20456;-69
2023/10/15 03:04:33;;;;;;;8.17;2.97;;;9.30;98.00;;;;;;5012067;28;20464;-69
2023/10/15 03:07:17;;;;;;;7.73;2.70;;;9.20;98.00;;;;;;5012356;28;20488;-69
2023/10/15 03:09:48;;;;;;;4.80;2.40;;;9.10;98.00;;;;;;5012193;28;20558;-69
2023/10/15 03:12:18;;;;;;;6.30;3.03;;;9.20;98.00;;;;;;5011922;28;21004;-69
2023/10/15 03:14:45;;;;;;;3.00;2.23;;;9.30;98.00;;;;;;5011475;28;20457;-69
2023/10/15 03:17:14;;;;;;;4.40;2.57;;;9.50;98.00;;;;;;5011701;28;20466;-68
2023/10/15 03:19:43;;;;;;;7.53;2.13;;;9.70;98.00;;;;;;5011562;28;20462;-68
2023/10/15 03:22:12;;;;;;;6.57;2.57;;;9.80;98.00;;;;;;5011392;28;20459;-68
2023/10/15 03:24:43;;;;;;;4.87;2.70;;;9.80;98.00;;;;;;5010412;28;20807;-68
2023/10/15 03:27:16;;;;;;;5.87;3.20;;;9.80;98.00;;;;;;5011447;28;20462;-68
2023/10/15 03:29:44;;;;;;;4.63;2.80;;;9.60;98.00;;;;;;5011324;28;20447;-68
2023/10/15 03:32:13;;;;;;;6.07;2.30;;;9.60;98.00;;;;;;5011442;28;20481;-68
2023/10/15 03:34:47;;;;;;;6.50;2.67;;;9.60;98.00;;;;;;5012551;28;20493;-68
2023/10/15 03:37:15;;;;;;;6.80;2.70;;;9.60;98.00;;;;;;5014472;28;20483;-68
2023/10/15 03:42:29;;;;;;;3.07;2.23;;;9.50;98.00;;;;;;5013881;28;20465;-68
2023/10/15 03:45:00;;;;;;;6.07;2.57;;;9.50;98.00;;;;;;5015238;28;20460;-68
2023/10/15 03:47:27;;;;;;;4.30;2.67;;;9.50;98.00;;;;;;5015193;28;20452;-69
2023/10/15 03:49:56;;;;;;;5.73;2.50;;;9.40;98.00;;;;;;5013972;28;20842;-68
2023/10/15 03:52:26;;;;;;;5.30;2.77;;;9.40;98.00;;;;;;5015294;28;20487;-68
2023/10/15 03:54:55;;;;;;;6.23;2.60;;;9.30;98.00;;;;;;5015006;28;20459;-68
2023/10/15 03:57:27;;;;;;;4.13;2.50;;;9.30;98.00;;;;;;5014975;28;20479;-68
2023/10/15 03:59:55;;;;;;;2.63;2.20;;;9.30;98.00;;;;;;5013953;28;20459;-68
2023/10/15 04:02:26;;;;;;;3.57;2.27;;;9.50;98.00;;;;;;5015107;28;20452;-68
2023/10/15 04:05:01;;;;;;;3.77;2.50;;;9.70;98.00;;;;;;5014808;28;20521;-68
2023/10/15 04:07:30;;;;;;;3.17;2.17;;;9.60;98.00;;;;;;5014897;28;20458;-68
2023/10/15 04:09:58;;;;;;;3.30;2.30;;;9.60;98.00;;;;;;5014527;28;20523;-67
2023/10/15 04:12:28;;;;;;;4.70;2.30;;;9.70;98.00;;;;;;5014648;28;20466;-67
2023/10/15 04:14:56;;;;;;;3.77;2.60;;;9.70;98.00;;;;;;5014438;28;20468;-68
2023/10/15 04:17:25;;;;;;;4.00;2.40;;;9.70;98.00;;;;;;5014293;28;20496;-68
2023/10/15 04:19:53;;;;;;;6.30;2.73;;;9.70;98.00;;;;;;5014419;28;20456;-67
2023/10/15 04:22:20;;;;;;;6.10;2.77;;;9.70;98.00;;;;;;5013242;28;20457;-67
2023/10/15 04:24:50;;;;;;;5.10;2.80;;;9.80;98.00;;;;;;5014331;28;20997;-67
2023/10/15 04:27:18;;;;;;;3.37;2.20;;;9.80;98.00;;;;;;5014458;28;20456;-68
2023/10/15 04:29:50;;;;;;;2.90;2.30;;;9.90;98.00;;;;;;5014553;28;20455;-67
2023/10/15 04:32:23;;;;;;;3.50;2.50;;;9.80;98.00;;;;;;5014405;28;20550;-68
2023/10/15 04:35:01;;;;;;;4.50;2.40;;;9.80;98.00;;;;;;5013183;28;20534;-68
2023/10/15 04:37:34;;;;;;;5.43;2.37;;;9.90;98.00;;;;;;5014232;28;20466;-67
2023/10/15 04:40:05;;;;;;;4.93;2.33;;;10.00;98.00;;;;;;5014621;28;20821;-68
2023/10/15 04:42:37;;;;;;;3.70;2.03;;;10.00;98.00;;;;;;5012976;28;20492;-68
2023/10/15 04:45:20;;;;;;;3.73;2.20;;;10.00;98.00;;;;;;5013859;28;20451;-68
2023/10/15 04:47:51;;;;;;;5.10;2.30;;;10.00;98.00;;;;;;5014487;28;20461;-68
2023/10/15 04:50:19;;;;;;;7.03;2.30;;;10.00;98.00;;;;;;5014700;28;20458;-68
2023/10/15 04:52:48;;;;;;;5.07;2.43;;;10.00;98.00;;;;;;5014300;28;20968;-67
2023/10/15 04:55:17;;;;;;;6.87;2.07;;;9.90;98.00;;;;;;5013933;28;20456;-68
2023/10/15 04:57:47;;;;;;;4.80;2.50;;;9.90;98.00;;;;;;5013967;28;20461;-68
2023/10/15 05:00:16;;;;;;;3.43;2.20;;;9.80;98.00;;;;;;5014072;28;20452;-67
2023/10/15 05:02:44;;;;;;;3.33;2.20;;;9.70;98.00;;;;;;5013918;28;20448;-68
2023/10/15 05:05:11;;;;;;;6.70;2.50;;;9.70;98.00;;;;;;5013739;28;20470;-67
2023/10/15 05:07:40;;;;;;;5.30;2.50;;;9.60;98.00;;;;;;5013997;28;20546;-68
2023/10/15 05:10:08;;;;;;;5.13;2.97;;;9.60;98.00;;;;;;5013873;28;20467;-67
2023/10/15 05:12:35;;;;;;;3.80;2.13;;;9.60;98.00;;;;;;5013793;28;20454;-68
2023/10/15 05:15:02;;;;;;;3.77;2.37;;;9.50;98.00;;;;;;5013549;28;20463;-68
2023/10/15 05:17:31;;;;;;;6.27;2.60;;;9.60;98.00;;;;;;5013667;28;20457;-68
2023/10/15 05:19:58;;;;;;;3.07;2.27;;;9.50;98.00;;;;;;5013513;28;20478;-68
2023/10/15 05:22:25;;;;;;;3.60;2.10;;;9.50;98.00;;;;;;5013386;28;20502;-67
2023/10/15 05:24:56;;;;;;;4.93;2.77;;;9.60;98.00;;;;;;5013239;28;20541;-68
2023/10/15 05:27:23;;;;;;;9.63;2.20;;;9.70;98.00;;;;;;5012003;28;20450;-68
2023/10/15 05:29:50;;;;;;;3.10;2.20;;;9.90;98.00;;;;;;5013314;28;20460;-67
2023/10/15 05:32:19;;;;;;;5.13;2.70;;;10.10;98.00;;;;;;5013606;28;20452;-67
2023/10/15 05:34:46;;;;;;;4.93;2.20;;;10.10;98.00;;;;;;5013161;28;20463;-67
2023/10/15 05:37:13;;;;;;;3.90;2.43;;;10.00;98.00;;;;;;5013096;28;20448;-68
2023/10/15 05:39:41;;;;;;;3.40;2.20;;;9.80;98.00;;;;;;5013029;28;20458;-68
2023/10/15 05:42:09;;;;;;;4.30;2.40;;;9.70;98.00;;;;;;5013376;28;20459;-67
2023/10/15 05:44:37;;;;;;;5.27;2.60;;;9.70;98.00;;;;;;5013033;28;20491;-67
2023/10/15 05:47:04;;;;;;;5.27;2.30;;;9.70;98.00;;;;;;5011669;28;20455;-67
2023/10/15 05:49:32;;;;;;;3.20;2.23;;;9.70;98.00;;;;;;5013174;28;20891;-68
2023/10/15 05:51:59;;;;;;;7.40;2.20;;;9.70;98.00;;;;;;5011847;28;20458;-68
2023/10/15 05:54:26;;;;;;;3.30;2.07;;;9.90;98.00;;;;;;5011745;28;20981;-68
2023/10/15 05:56:53;;;;;;;3.30;2.00;;;9.80;98.00;;;;;;5012076;28;20456;-68
2023/10/15 05:59:22;;;;;;;2.70;1.93;;;9.90;98.00;;;;;;5012688;28;20461;-63
2023/10/15 06:01:50;;;;;;;3.30;2.13;;;9.90;98.00;;;;;;5011498;28;20482;-64
2023/10/15 06:04:21;;;;;;;3.60;2.07;;;10.00;98.00;;;;;;5012771;28;20899;-63
2023/10/15 06:06:49;;;;;;;8.40;2.50;;;10.00;98.00;;;;;;5012731;28;20516;-63
2023/10/15 06:09:17;;;;;;;4.30;2.37;;;10.10;98.00;;;;;;5012639;28;20491;-63
2023/10/15 06:11:44;;;;;;;4.17;2.50;;;10.10;98.00;;;;;;5012554;28;20533;-64
2023/10/15 06:14:11;;;;;;;3.13;2.30;;;10.10;98.00;;;;;;4995096;28;20949;-63
2023/10/15 06:16:39;;;;;;;4.87;2.27;;;10.10;98.00;;;;;;5012384;28;20459;-63
2023/10/15 06:19:06;;;;;;;4.33;2.40;;;10.00;98.00;;;;;;5012571;28;20460;-64
2023/10/15 06:21:35;;;;;;;3.43;2.43;;;10.10;98.00;;;;;;5012751;28;20457;-63
2023/10/15 06:24:02;;;;;;;6.77;3.00;;;10.30;98.00;;;;;;5011208;28;20483;-63
2023/10/15 06:26:30;;;;;;;4.10;2.60;;;10.40;98.00;;;;;;5012345;28;20517;-63
2023/10/15 06:29:00;;;;;;;3.90;2.50;;;10.20;98.00;;;;;;5012684;28;20466;-63
2023/10/15 06:31:28;;;;;;;8.67;2.53;;;10.10;98.00;;;;;;5012394;28;20879;-63
2023/10/15 06:33:57;;;;;;;5.67;2.80;;;10.00;98.00;;;;;;5011266;28;20451;-63
2023/10/15 06:36:24;;;;;;;5.63;2.90;;;10.00;98.00;;;;;;5012255;28;20510;-63
2023/10/15 06:38:56;;;;;;;6.43;2.70;;;9.90;98.00;;;;;;5012279;28;20464;-63
2023/10/15 06:41:24;;;;;;;5.40;3.07;;;9.90;98.00;;;;;;5011040;28;20456;-63
2023/10/15 06:43:51;;;;;;;4.60;2.33;;;9.90;98.00;;;;;;5012141;28;20883;-63
2023/10/15 06:46:18;;;;;;;5.23;2.70;;;9.90;98.00;;;;;;5011905;28;21039;-63
2023/10/15 06:48:45;;;;;;;5.27;2.63;;;10.00;98.00;;;;;;5012196;28;20463;-63
2023/10/15 06:51:17;;;;;;;5.53;2.77;;;10.20;98.00;;;;;;5011820;28;20492;-63
2023/10/15 06:53:45;;;;;;;2.90;2.23;;;10.30;98.00;;;;;;5011949;28;20527;-63
2023/10/15 06:56:12;;;;;;;4.33;2.37;;;10.40;98.00;;;;;;5011884;28;20462;-63
2023/10/15 06:58:40;;;;;;;5.70;2.57;;;10.50;98.00;;;;;;5011932;28;20456;-63
2023/10/15 07:01:07;;;;;;;4.00;2.37;;;10.60;98.00;;;;;;5011866;28;20451;-64
2023/10/15 07:03:35;;;;;;;4.20;2.30;;;10.60;98.00;;;;;;5011800;28;20989;-62
2023/10/15 07:06:05;;;;;;;7.43;2.47;;;10.60;98.00;;;;;;5011717;28;20544;-62
2023/10/15 07:08:33;;;;;;;4.43;2.27;;;10.70;98.00;;;;;;5011165;28;20458;-63
2023/10/15 07:11:00;;;;;;;4.27;2.30;;;10.60;98.00;;;;;;5010434;28;20800;-63
2023/10/15 07:13:27;;;;;;;3.80;2.50;;;10.70;98.00;;;;;;5011754;28;20454;-62
2023/10/15 07:15:55;;;;;;;5.13;2.60;;;10.90;98.00;;;;;;5011462;28;20497;-63
2023/10/15 07:18:22;;;;;;;3.23;2.27;;;10.90;98.00;;;;;;5011589;28;20462;-63
2023/10/15 07:20:49;;;;;;;4.80;2.70;;;10.80;98.00;;;;;;5011462;28;20506;-63
2023/10/15 07:23:16;;;;;;;4.97;2.60;;;10.70;98.00;;;;;;5010236;28;20671;-63
2023/10/15 07:25:46;;;;;;;3.90;2.60;;;10.70;98.00;;;;;;5011324;28;20521;-63
2023/10/15 07:28:13;;;;;;;5.03;2.63;;;10.90;98.00;;;;;;5011425;28;20461;-63
2023/10/15 07:30:40;;;;;;;4.27;2.30;;;10.90;98.00;;;;;;5011630;28;20461;-63
2023/10/15 07:33:08;;;;;;;4.50;2.70;;;11.00;98.00;;;;;;5011643;28;20455;-64
2023/10/15 07:35:36;;;;;;;4.47;2.70;;;11.10;98.00;;;;;;5011585;28;20459;-63
2023/10/15 07:38:04;;;;;;;5.90;3.23;;;11.10;98.00;;;;;;5011381;28;20502;-63
2023/10/15 07:40:32;;;;;;;6.50;3.63;;;11.00;98.00;;;;;;5011297;28;20452;-63
2023/10/15 07:43:02;;;;;;;7.00;3.80;;;11.10;98.00;;;;;;5011440;28;20452;-63
2023/10/15 07:45:32;;;;;;;6.80;3.73;;;11.10;98.00;;;;;;5011228;28;20502;-64
2023/10/15 07:48:01;;;;;;;7.50;3.60;;;11.00;98.00;;;;;;5011304;28;20478;-63
2023/10/15 07:50:29;;;;;;;6.73;3.63;;;11.10;98.00;;;;;;5011390;28;20823;-63
2023/10/15 07:52:56;;;;;;;6.93;3.50;;;11.10;98.00;;;;;;5011380;28;21019;-63
2023/10/15 07:55:24;;;;;;;10.23;4.30;;;11.30;98.00;;;;;;5011389;28;20467;-63
2023/10/15 07:57:52;;;;;;;5.90;2.87;;;11.40;98.00;;;;;;5010154;28;20453;-63
2023/10/15 08:00:25;;;;;;;9.40;2.70;;;11.40;98.00;;;;;;5011126;28;20554;-63
2023/10/15 08:02:57;;;;;;;8.23;2.90;;;11.40;98.00;;;;;;5011363;28;20470;-64
2023/10/15 08:05:24;;;;;;;6.90;2.40;;;11.50;98.00;;;;;;5011148;28;20932;-63
2023/10/15 08:07:56;;;;;;;4.70;2.53;;;11.60;98.00;;;;;;5011354;28;20449;-63
2023/10/15 08:10:24;;;;;;;3.90;2.40;;;11.70;98.00;;;;;;5011309;28;20459;-63
2023/10/15 08:12:52;;;;;;;11.00;2.73;;;11.60;98.00;;;;;;5010217;28;20447;-63
2023/10/15 08:15:21;;;;;;;6.30;2.53;;;11.50;98.00;;;;;;5010955;28;20476;-63
2023/10/15 08:17:48;;;;;;;6.00;2.63;;;11.40;98.00;;;;;;5011138;28;20546;-63
2023/10/15 08:20:15;;;;;;;5.40;2.63;;;11.50;98.00;;;;;;5011500;28;20501;-63
2023/10/15 08:22:44;;;;;;;4.33;2.60;;;11.30;98.00;;;;;;5013523;28;20458;-63
2023/10/15 08:25:13;;;;;;;7.63;3.17;;;11.30;98.00;;;;;;5014617;28;20490;-62
2023/10/15 08:27:41;;;;;;;12.90;2.90;;;11.40;98.00;;;;;;5014442;28;20528;-63
2023/10/15 08:30:12;;;;;;;6.57;2.30;;;11.40;98.00;;;;;;5014346;28;20502;-63
2023/10/15 08:32:41;;;;;;;10.80;2.50;;;11.30;98.00;;;;;;5014470;28;20460;-63
2023/10/15 08:35:09;;;;;;;5.50;2.20;;;11.20;98.00;;;;;;5014393;28;20794;-63
2023/10/15 08:37:36;;;;;;;2.90;1.83;;;11.40;98.00;;;;;;5014772;28;20631;-62
2023/10/15 08:40:04;;;;;;;12.70;2.30;;;11.60;98.00;;;;;;5013206;28;20462;-63
2023/10/15 08:42:38;;;;;;;2.47;1.80;;;11.60;98.00;;;;;;5014589;28;20489;-62
2023/10/15 08:45:08;;;;;;;5.90;2.00;;;11.70;98.00;;;;;;5014323;28;20492;-63
2023/10/15 08:47:36;;;;;;;5.97;2.23;;;11.90;98.00;;;;;;5014116;28;20942;-63
2023/10/15 08:50:10;;;;;;;7.00;2.50;;;12.00;98.00;;;;;;5013019;28;20976;-63
2023/10/15 08:52:45;;;;;;;3.03;1.90;;;12.10;98.00;;;;;;5014315;28;20554;-63
2023/10/15 08:55:14;;;;;;;3.30;2.13;;;12.10;98.00;;;;;;5013914;28;20822;-63
2023/10/15 08:57:42;;;;;;;2.63;2.10;;;12.30;98.00;;;;;;5014004;28;20452;-64
2023/10/15 09:00:25;;;;;;;4.60;1.87;;;12.20;98.00;;;;;;5013855;28;20455;-64
2023/10/15 09:02:54;;;;;;;5.37;2.07;;;12.00;98.00;;;;;;5014015;28;20456;-63
2023/10/15 09:05:23;;;;;;;3.83;2.20;;;11.80;98.00;;;;;;5013577;28;20542;-63
2023/10/15 09:07:54;;;;;;;8.27;2.27;;;11.70;98.00;;;;;;5013957;28;20457;-63
2023/10/15 09:10:22;;;;;;;3.93;1.90;;;11.60;98.00;;;;;;5013771;28;20462;-63
2023/10/15 09:12:49;;;;;;;5.33;2.10;;;11.60;98.00;;;;;;5013680;28;20450;-63
2023/10/15 09:15:17;;;;;;;2.53;1.90;;;11.60;98.00;;;;;;5013534;28;20454;-63
2023/10/15 09:17:50;;;;;;;3.23;1.80;;;11.50;98.00;;;;;;5013513;28;20460;-63
2023/10/15 09:20:26;;;;;;;3.13;1.90;;;11.60;98.00;;;;;;5013510;28;20549;-63
2023/10/15 09:22:56;;;;;;;2.63;1.60;;;11.70;98.00;;;;;;5013826;28;20494;-63
2023/10/15 09:25:24;;;;;;;3.63;1.70;;;11.70;98.00;;;;;;5013344;28;20883;-63
2023/10/15 09:27:54;;;;;;;3.00;1.73;;;12.10;98.00;;;;;;5013412;28;20967;-63
2023/10/15 09:30:22;;;;;;;7.97;1.90;;;12.20;98.00;;;;;;5013807;28;20455;-64
2023/10/15 09:32:50;;;;;;;5.23;1.93;;;12.20;98.00;;;;;;5013432;28;20456;-63
2023/10/15 09:35:17;;;;;;;2.70;1.90;;;12.10;98.00;;;;;;5013079;28;20451;-63
2023/10/15 09:37:45;;;;;;;3.80;1.80;;;12.30;98.00;;;;;;5012167;28;20458;-63
2023/10/15 09:40:18;;;;;;;7.60;1.60;;;12.40;98.00;;;;;;5011785;28;20449;-63
2023/10/15 09:42:49;;;;;;;3.60;1.90;;;12.50;98.00;;;;;;5013391;28;20450;-63
2023/10/15 09:45:19;;;;;;;3.00;1.50;;;12.50;98.00;;;;;;5013406;28;20576;-63
2023/10/15 09:47:52;;;;;;;6.17;2.00;;;12.50;98.00;;;;;;5013443;28;20466;-63
2023/10/15 09:50:24;;;;;;;2.10;1.47;;;12.50;98.00;;;;;;5013132;28;20540;-63
2023/10/15 09:52:56;;;;;;;3.60;1.70;;;12.40;98.00;;;;;;5013511;28;20467;-63
2023/10/15 09:55:32;;;;;;;5.10;1.53;;;12.40;98.00;;;;;;5013175;28;20450;-63
2023/10/15 09:58:01;;;;;;;5.67;1.50;;;12.30;98.00;;;;;;5013350;28;20494;-63
2023/10/15 10:04:16;;;;;;;6.13;1.87;;;12.60;98.00;;;;;;5150325;27;20557;-62
2023/10/15 10:07:36;;;;;;;4.80;1.80;;;12.80;98.00;;;;;;5124109;28;20454;-62
2023/10/15 10:10:26;;;;;;;3.77;1.73;;;13.30;98.00;;;;;;5066186;28;20474;-63
2023/10/15 10:13:23;;;;;;;2.47;2.00;;;13.50;98.00;;;;;;5066053;28;20445;-62
2023/10/15 10:15:54;;;;;;;3.20;1.60;;;13.40;98.00;;;;;;5125325;27;20445;-62
2023/10/15 10:18:22;;;;;;;2.47;1.70;;;12.90;98.00;;;;;;5129321;28;20447;-63
2023/10/15 10:20:49;;;;;;;4.50;1.67;;;13.00;98.00;;;;;;5129339;28;20485;-63
2023/10/15 10:23:17;;;;;;;2.37;1.67;;;12.90;98.00;;;;;;5129439;28;20851;-63
2023/10/15 10:25:49;;;;;;;2.27;1.50;;;12.90;98.00;;;;;;5129310;27;20455;-62
2023/10/15 10:28:18;;;;;;;4.03;1.70;;;13.00;98.00;;;;;;5129177;28;20450;-63
2023/10/15 10:30:55;;;;;;;2.33;1.57;;;13.40;98.00;;;;;;5129084;28;20458;-63
2023/10/15 10:33:48;;;;;;;7.10;1.80;;;13.80;98.00;;;;;;5129057;28;20447;-63
2023/10/15 10:36:17;;;;;;;2.03;1.60;;;14.30;98.00;;;;;;5120987;28;20460;-63
2023/10/15 10:38:44;;;;;;;2.10;1.60;;;14.30;98.00;;;;;;5129038;28;20455;-63
2023/10/15 10:41:14;;;;;;;6.50;1.50;;;14.30;98.00;;;;;;5127485;28;20450;-63
2023/10/15 10:43:42;;;;;;;5.20;1.60;;;14.40;98.00;;;;;;5128866;28;20542;-63
2023/10/15 10:46:20;;;;;;;2.43;1.60;;;14.00;98.00;;;;;;5129001;28;20455;-63
2023/10/15 10:49:03;;;;;;;3.23;1.53;;;13.60;98.00;;;;;;5128778;28;20454;-63
2023/10/15 10:51:33;;;;;;;3.60;1.57;;;13.40;98.00;;;;;;5128761;27;20529;-63
2023/10/15 10:54:28;;;;;;;2.50;1.47;;;13.60;98.00;;;;;;5128863;27;20504;-62
2023/10/15 10:57:10;;;;;;;2.20;1.43;;;14.00;98.00;;;;;;5128826;28;20807;-62
2023/10/15 10:59:39;;;;;;;3.90;1.80;;;14.10;98.00;;;;;;5128556;28;20449;-63
2023/10/15 11:02:11;;;;;;;2.50;1.47;;;14.00;98.00;;;;;;5128197;28;20488;-62
2023/10/15 11:04:39;;;;;;;1.83;1.60;;;13.90;98.00;;;;;;5110839;28;20833;-62
2023/10/15 11:07:11;;;;;;;2.67;1.40;;;13.60;98.00;;;;;;5128401;28;20510;-62
2023/10/15 11:09:38;;;;;;;1.93;1.50;;;13.00;98.00;;;;;;5128598;27;20454;-62
2023/10/15 11:12:19;;;;;;;2.40;1.60;;;12.70;98.00;;;;;;5128361;28;20844;-62
2023/10/15 11:14:46;;;;;;;3.90;1.80;;;12.40;98.00;;;;;;5114769;28;20459;-63
2023/10/15 11:17:15;;;;;;;2.07;1.70;;;12.20;98.00;;;;;;5114454;28;20448;-62
2023/10/15 11:19:42;;;;;;;1.97;1.43;;;12.00;98.00;;;;;;5114806;28;20953;-63
2023/10/15 11:22:14;;;;;;;1.90;1.27;;;12.20;98.00;;;;;;5114346;28;20482;-62
2023/10/15 11:24:43;;;;;;;2.00;1.40;;;12.40;98.00;;;;;;5114511;28;20461;-63
2023/10/15 11:27:13;;;;;;;1.60;1.40;;;12.30;98.00;;;;;;5114278;28;20451;-63
2023/10/15 11:29:40;;;;;;;4.03;1.57;;;12.20;98.00;;;;;;5114378;28;20455;-63
2023/10/15 11:32:08;;;;;;;5.00;1.53;;;12.30;98.00;;;;;;5112940;28;21019;-63
2023/10/15 11:34:36;;;;;;;1.90;1.50;;;12.20;98.00;;;;;;5114384;28;20450;-61
2023/10/15 11:37:03;;;;;;;2.07;1.60;;;12.10;98.00;;;;;;5114604;28;20449;-62
2023/10/15 11:39:37;;;;;;;1.73;1.40;;;12.10;98.00;;;;;;5114374;28;21013;-62
2023/10/15 11:42:05;;;;;;;2.30;1.40;;;12.10;98.00;;;;;;5114452;28;20534;-63
2023/10/15 11:44:37;;;;;;;2.43;1.50;;;12.10;98.00;;;;;;5114134;28;20470;-62
2023/10/15 11:47:11;;;;;;;3.80;1.80;;;12.80;98.00;;;;;;5114105;28;20460;-63
2023/10/15 11:49:42;;;;;;;2.30;1.63;;;13.50;98.00;;;;;;5113975;28;20496;-62
2023/10/15 11:52:14;;;;;;;2.80;1.77;;;14.30;98.00;;;;;;5112813;28;20454;-62
2023/10/15 11:54:43;;;;;;;2.37;1.70;;;14.90;98.00;;;;;;5113921;28;20497;-63
2023/10/15 11:57:16;;;;;;;1.70;1.43;;;15.30;98.00;;;;;;5113790;28;20859;-63
2023/10/15 11:59:45;;;;;;;2.30;1.60;;;15.70;98.00;;;;;;5113898;28;20496;-63
2023/10/15 12:02:12;;;;;;;2.63;1.57;;;15.20;98.00;;;;;;5113407;28;20480;-62
2023/10/15 12:04:39;;;;;;;1.83;1.40;;;14.90;98.00;;;;;;5113714;28;20447;-63
2023/10/15 12:07:15;;;;;;;1.20;1.20;;;14.50;98.00;;;;;;5113582;28;20492;-63
2023/10/15 12:09:44;;;;;;;1.80;1.40;;;14.30;98.00;;;;;;5112512;28;20535;-62
2023/10/15 12:12:11;;;;;;;2.37;1.30;;;14.10;98.00;;;;;;5113524;27;20514;-62
2023/10/15 12:14:40;;;;;;;1.90;1.33;;;14.50;98.00;;;;;;5113457;28;20946;-62
2023/10/15 12:17:12;;;;;;;4.87;2.27;;;14.40;98.00;;;;;;5095665;28;20469;-63
2023/10/15 12:19:40;;;;;;;1.90;1.50;;;14.30;98.00;;;;;;5093163;28;20456;-62
2023/10/15 12:22:10;;;;;;;1.47;1.47;;;14.30;98.00;;;;;;5092774;28;20477;-62
2023/10/15 12:24:36;;;;;;;3.10;1.50;;;14.30;98.00;;;;;;5092436;28;20478;-62
2023/10/15 12:27:05;;;;;;;2.90;1.47;;;14.30;98.00;;;;;;5092431;28;20454;-63
2023/10/15 12:29:32;;;;;;;2.40;1.70;;;14.20;98.00;;;;;;5092943;28;20793;-62
2023/10/15 12:31:59;;;;;;;4.10;1.50;;;14.70;98.00;;;;;;5092674;28;20450;-62
2023/10/15 12:34:28;;;;;;;3.53;1.80;;;15.40;98.00;;;;;;5092848;28;20456;-63
2023/10/15 12:36:56;;;;;;;2.23;1.60;;;16.30;98.00;;;;;;5092557;28;20450;-63
2023/10/15 12:39:26;;;;;;;6.30;1.83;;;17.00;97.90;;;;;;5092689;28;20454;-63
2023/10/15 12:41:54;;;;;;;1.50;1.50;;;17.40;97.30;;;;;;5092779;28;20460;-62
2023/10/15 12:44:22;;;;;;;3.73;1.70;;;17.80;95.10;;;;;;5092613;28;20448;-63
2023/10/15 12:46:50;;;;;;;1.90;1.70;;;17.80;96.00;;;;;;5092479;28;20447;-63
2023/10/15 12:49:17;;;;;;;4.27;2.00;;;17.80;94.70;;;;;;5092725;28;20455;-63
2023/10/15 12:51:46;;;;;;;2.00;1.40;;;17.80;95.50;;;;;;5092511;28;20816;-62
2023/10/15 12:54:13;;;;;;;4.20;1.70;;;17.80;93.10;;;;;;5092531;28;20978;-63
2023/10/15 12:56:40;;;;;;;2.73;1.70;;;18.00;93.20;;;;;;5092315;28;20456;-62
2023/10/15 12:59:07;;;;;;;2.23;1.50;;;18.20;93.60;;;;;;5092185;28;20961;-63
2023/10/15 13:01:34;;;;;;;1.83;1.60;;;18.30;87.80;;;;;;5091994;28;20498;-63
2023/10/15 13:04:01;;;;;;;3.53;2.00;;;18.00;86.70;;;;;;5091075;28;20483;-62
2023/10/15 13:06:28;;;;;;;4.13;1.50;;;17.70;88.80;;;;;;5092211;28;20874;-62
2023/10/15 13:08:57;;;;;;;2.70;1.53;;;17.30;88.50;;;;;;5092329;28;20462;-63
2023/10/15 13:11:24;;;;;;;5.73;1.60;;;16.50;90.50;;;;;;5092392;28;20866;-63
2023/10/15 13:13:51;;;;;;;1.60;1.50;;;16.00;90.80;;;;;;5091058;28;20455;-63